Time;durP1;ratioP1;P1;durP2;ratioP2;P2;SDS_P1;SDS_P2;PMS_P1;PMS_P2;Temp;Humidity;BMP_temperature;BMP_pressure;BME280_temperature;BME280_humidity;BME280_pressure;Samples;Min_cycle;Max_cycle;Signal;HPM_P1;HPM_P2
2021/08/12 00:01:45;;;;;;;4.18;2.30;;;;;;;;;;5042097;28;20098;-74
2021/08/12 00:04:31;;;;;;;6.22;2.30;;;;;;;;;;5030139;28;20040;-75
2021/08/12 00:07:16;;;;;;;3.85;2.10;;;;;;;;;;5043048;28;20082;-75
2021/08/12 00:10:00;;;;;;;4.18;2.10;;;;;;;;;;5042447;28;20035;-74
2021/08/12 00:12:45;;;;;;;4.80;2.20;;;;;;;;;;5043037;28;20098;-75
2021/08/12 00:15:29;;;;;;;3.25;2.00;;;;;;;;;;5043352;28;20163;-74
2021/08/12 00:18:14;;;;;;;3.15;2.00;;;;;;;;;;5042425;28;20102;-75
2021/08/12 00:20:58;;;;;;;4.95;2.30;;;;;;;;;;5031976;28;20039;-75
2021/08/12 00:23:43;;;;;;;5.13;2.10;;;;;;;;;;5042496;28;20067;-75
2021/08/12 00:26:28;;;;;;;2.60;1.80;;;;;;;;;;5042429;28;20445;-74
2021/08/12 00:29:12;;;;;;;4.65;2.03;;;;;;;;;;5041772;28;20072;-75
2021/08/12 00:31:56;;;;;;;3.75;1.85;;;;;;;;;;5043596;28;20098;-75
2021/08/12 00:34:41;;;;;;;4.07;2.20;;;;;;;;;;5009658;28;20119;-75
2021/08/12 00:37:25;;;;;;;5.85;2.10;;;;;;;;;;5026750;28;20095;-75
2021/08/12 00:40:11;;;;;;;2.85;1.92;;;;;;;;;;5043205;28;20062;-75
2021/08/12 00:42:55;;;;;;;5.22;2.22;;;;;;;;;;5028071;28;20063;-75
2021/08/12 00:45:40;;;;;;;4.53;2.20;;;;;;;;;;5043874;28;20120;-75
2021/08/12 00:48:24;;;;;;;4.78;2.30;;;;;;;;;;5022421;28;20039;-75
2021/08/12 00:51:09;;;;;;;4.55;2.75;;;;;;;;;;5025499;28;20139;-75
2021/08/12 00:53:54;;;;;;;2.95;2.08;;;;;;;;;;5041642;28;20549;-75
2021/08/12 00:56:38;;;;;;;5.45;1.95;;;;;;;;;;5042880;28;20048;-72
2021/08/12 00:59:23;;;;;;;4.10;2.15;;;;;;;;;;5042971;28;20149;-73
2021/08/12 01:02:09;;;;;;;2.92;1.80;;;;;;;;;;5023778;28;20122;-72
2021/08/12 01:04:53;;;;;;;4.40;2.47;;;;;;;;;;5022909;28;20048;-73
2021/08/12 01:07:47;;;;;;;4.00;1.98;;;;;;;;;;5041279;28;20039;-73
2021/08/12 01:10:37;;;;;;;3.65;2.33;;;;;;;;;;5028394;28;20076;-75
2021/08/12 01:13:41;;;;;;;4.90;2.13;;;;;;;;;;5030130;28;20052;-75
2021/08/12 01:16:27;;;;;;;2.40;1.70;;;;;;;;;;5042244;28;20055;-75
2021/08/12 01:19:30;;;;;;;3.72;2.20;;;;;;;;;;5042320;28;20118;-75
2021/08/12 01:22:17;;;;;;;2.88;1.63;;;;;;;;;;5043546;28;20444;-75
2021/08/12 01:25:03;;;;;;;3.97;1.80;;;;;;;;;;5028557;28;20040;-75
2021/08/12 01:27:48;;;;;;;3.28;2.08;;;;;;;;;;5042236;28;20043;-75
2021/08/12 01:30:35;;;;;;;4.35;2.05;;;;;;;;;;5042201;28;20124;-75
2021/08/12 01:33:30;;;;;;;5.30;2.20;;;;;;;;;;5042704;28;20473;-75
2021/08/12 01:36:15;;;;;;;4.13;2.05;;;;;;;;;;5046046;28;20044;-74
2021/08/12 01:38:59;;;;;;;3.15;1.70;;;;;;;;;;5027509;28;20701;-75
2021/08/12 01:41:46;;;;;;;2.75;1.83;;;;;;;;;;5044571;28;20083;-75
2021/08/12 01:44:31;;;;;;;4.03;1.80;;;;;;;;;;5032281;28;20079;-74
2021/08/12 01:47:16;;;;;;;2.85;1.88;;;;;;;;;;5045001;28;20040;-75
2021/08/12 01:50:05;;;;;;;4.55;2.10;;;;;;;;;;5035206;28;20040;-73
2021/08/12 01:52:50;;;;;;;3.45;1.77;;;;;;;;;;5031855;28;20136;-74
2021/08/12 01:55:35;;;;;;;2.97;2.10;;;;;;;;;;5045324;28;20047;-75
2021/08/12 01:58:21;;;;;;;3.45;1.98;;;;;;;;;;5012122;28;20048;-74
2021/08/12 02:01:06;;;;;;;3.85;1.70;;;;;;;;;;5043867;28;20824;-74
2021/08/12 02:03:50;;;;;;;3.08;1.58;;;;;;;;;;5031586;28;20040;-74
2021/08/12 02:06:36;;;;;;;2.75;1.80;;;;;;;;;;5045898;28;20040;-75
2021/08/12 02:09:20;;;;;;;5.57;2.00;;;;;;;;;;5045490;28;20083;-75
2021/08/12 02:12:06;;;;;;;4.13;1.67;;;;;;;;;;5043450;28;20043;-75
2021/08/12 02:14:51;;;;;;;6.07;1.90;;;;;;;;;;5031121;28;20064;-75
2021/08/12 02:17:35;;;;;;;4.72;1.80;;;;;;;;;;5045752;28;20043;-74
2021/08/12 02:20:20;;;;;;;3.42;1.63;;;;;;;;;;5047708;28;20527;-74
2021/08/12 02:23:21;;;;;;;3.05;1.60;;;;;;;;;;5014786;28;20044;-74
2021/08/12 02:26:07;;;;;;;2.40;1.50;;;;;;;;;;5046952;28;20044;-74
2021/08/12 02:28:52;;;;;;;4.10;1.50;;;;;;;;;;5046335;28;20044;-74
2021/08/12 02:31:36;;;;;;;4.38;1.50;;;;;;;;;;5032233;28;20048;-74
2021/08/12 02:34:21;;;;;;;2.65;1.73;;;;;;;;;;5049809;28;20151;-74
2021/08/12 02:37:05;;;;;;;2.83;1.60;;;;;;;;;;5033115;28;20100;-75
2021/08/12 02:39:50;;;;;;;3.38;1.60;;;;;;;;;;5049835;28;20094;-74
2021/08/12 02:42:37;;;;;;;2.53;1.50;;;;;;;;;;5034247;28;20120;-74
2021/08/12 02:45:22;;;;;;;2.63;1.30;;;;;;;;;;5047855;28;20032;-74
2021/08/12 02:48:10;;;;;;;3.05;1.55;;;;;;;;;;5048974;28;20834;-75
2021/08/12 02:50:55;;;;;;;4.53;1.65;;;;;;;;;;5027287;28;20063;-74
2021/08/12 02:53:40;;;;;;;3.05;1.40;;;;;;;;;;5038342;28;20709;-74
2021/08/12 02:56:25;;;;;;;4.75;1.50;;;;;;;;;;5047031;28;20059;-74
2021/08/12 02:59:10;;;;;;;2.63;1.30;;;;;;;;;;5028990;28;20039;-74
2021/08/12 03:01:54;;;;;;;3.95;1.58;;;;;;;;;;5033852;28;20048;-74
2021/08/12 03:04:39;;;;;;;3.75;1.20;;;;;;;;;;5048093;28;20075;-74
2021/08/12 03:07:23;;;;;;;4.65;1.50;;;;;;;;;;5032808;28;20493;-74
2021/08/12 03:10:08;;;;;;;3.28;1.27;;;;;;;;;;5046554;28;20508;-74
2021/08/12 03:12:53;;;;;;;3.80;1.20;;;;;;;;;;5025434;28;20110;-75
2021/08/12 03:15:38;;;;;;;4.07;1.30;;;;;;;;;;5032226;28;20048;-74
2021/08/12 03:18:23;;;;;;;2.95;1.13;;;;;;;;;;5046533;28;20058;-75
2021/08/12 03:21:08;;;;;;;2.30;1.25;;;;;;;;;;5022042;28;20041;-75
2021/08/12 03:23:52;;;;;;;4.60;1.30;;;;;;;;;;5026900;28;20036;-75
2021/08/12 03:26:36;;;;;;;4.57;1.20;;;;;;;;;;5045910;28;20051;-75
2021/08/12 03:29:21;;;;;;;1.92;1.05;;;;;;;;;;5046473;28;20433;-75
2021/08/12 03:32:06;;;;;;;3.15;1.15;;;;;;;;;;5046388;28;20083;-74
2021/08/12 03:34:51;;;;;;;2.53;1.20;;;;;;;;;;5031772;28;20449;-75
2021/08/12 03:37:35;;;;;;;3.58;1.20;;;;;;;;;;5046421;28;20052;-74
2021/08/12 03:40:20;;;;;;;4.82;1.35;;;;;;;;;;5026419;28;20040;-75
2021/08/12 03:43:04;;;;;;;7.28;1.50;;;;;;;;;;5042432;28;20120;-75
2021/08/12 03:45:49;;;;;;;5.32;1.40;;;;;;;;;;5046277;28;20162;-75
2021/08/12 03:48:33;;;;;;;4.60;1.30;;;;;;;;;;5045597;28;20048;-74
2021/08/12 03:51:18;;;;;;;3.25;1.20;;;;;;;;;;5044141;28;20098;-74
2021/08/12 03:54:03;;;;;;;3.42;1.10;;;;;;;;;;5046046;28;20083;-75
2021/08/12 03:56:48;;;;;;;3.20;1.20;;;;;;;;;;5045428;28;20473;-75
2021/08/12 03:59:32;;;;;;;1.65;0.95;;;;;;;;;;5031550;28;20083;-74
2021/08/12 04:02:17;;;;;;;3.20;1.20;;;;;;;;;;5046495;28;20040;-75
2021/08/12 04:05:02;;;;;;;4.70;1.58;;;;;;;;;;5044425;28;20040;-74
2021/08/12 04:07:46;;;;;;;2.80;1.00;;;;;;;;;;5045699;28;20081;-75
2021/08/12 04:10:31;;;;;;;4.93;1.40;;;;;;;;;;5025683;28;20099;-73
2021/08/12 04:13:15;;;;;;;3.83;1.08;;;;;;;;;;5042237;28;20052;-74
2021/08/12 04:16:00;;;;;;;2.63;0.98;;;;;;;;;;5045560;28;20099;-75
2021/08/12 04:18:44;;;;;;;2.70;1.10;;;;;;;;;;5045327;28;20109;-75
2021/08/12 04:21:29;;;;;;;1.98;1.02;;;;;;;;;;5045270;28;20193;-75
2021/08/12 04:24:13;;;;;;;4.43;1.10;;;;;;;;;;5042763;28;20126;-74
2021/08/12 04:26:58;;;;;;;3.78;1.13;;;;;;;;;;5046357;28;20036;-75
2021/08/12 04:29:43;;;;;;;4.20;1.10;;;;;;;;;;5045970;28;20048;-75
2021/08/12 04:32:27;;;;;;;3.90;1.02;;;;;;;;;;5045829;28;20098;-75
2021/08/12 04:35:12;;;;;;;3.10;1.10;;;;;;;;;;5025498;28;20076;-74
2021/08/12 04:37:56;;;;;;;4.32;1.00;;;;;;;;;;5041181;28;20090;-74
2021/08/12 04:40:41;;;;;;;4.88;1.40;;;;;;;;;;5044903;28;20106;-74
2021/08/12 04:43:25;;;;;;;4.13;1.50;;;;;;;;;;5045792;28;20059;-74
2021/08/12 04:46:10;;;;;;;5.95;1.10;;;;;;;;;;5045095;28;20040;-74
2021/08/12 04:48:55;;;;;;;3.90;1.10;;;;;;;;;;5042821;28;20479;-75
2021/08/12 04:51:39;;;;;;;3.42;1.02;;;;;;;;;;5042467;28;20059;-75
2021/08/12 04:54:24;;;;;;;4.30;1.20;;;;;;;;;;5041046;28;20051;-74
2021/08/12 04:57:09;;;;;;;3.22;1.40;;;;;;;;;;5042510;28;20083;-74
2021/08/12 04:59:53;;;;;;;3.03;0.98;;;;;;;;;;5042384;28;20076;-75
2021/08/12 05:02:38;;;;;;;2.05;1.05;;;;;;;;;;5028964;28;20687;-74
2021/08/12 05:05:22;;;;;;;3.72;1.17;;;;;;;;;;5042681;28;20079;-74
2021/08/12 05:08:07;;;;;;;3.53;1.08;;;;;;;;;;5042773;28;20111;-74
2021/08/12 05:10:51;;;;;;;2.80;0.90;;;;;;;;;;5043415;28;20544;-75
2021/08/12 05:13:36;;;;;;;2.42;1.30;;;;;;;;;;5039696;28;20048;-75
2021/08/12 05:16:21;;;;;;;2.83;1.00;;;;;;;;;;5042062;28;20040;-74
2021/08/12 05:19:06;;;;;;;3.88;1.10;;;;;;;;;;5026087;28;20044;-74
2021/08/12 05:21:50;;;;;;;3.20;1.00;;;;;;;;;;5042946;28;20044;-74
2021/08/12 05:24:35;;;;;;;2.95;1.00;;;;;;;;;;5038092;28;20140;-74
2021/08/12 05:27:19;;;;;;;2.22;1.13;;;;;;;;;;5041991;28;20521;-75
2021/08/12 05:30:04;;;;;;;3.28;1.23;;;;;;;;;;5041488;28;20036;-74
2021/08/12 05:32:49;;;;;;;2.40;1.00;;;;;;;;;;5042923;28;20048;-75
2021/08/12 05:35:33;;;;;;;3.35;1.08;;;;;;;;;;5041645;28;20677;-75
2021/08/12 05:38:18;;;;;;;3.75;0.82;;;;;;;;;;5041614;28;20119;-75
2021/08/12 05:41:02;;;;;;;4.18;1.27;;;;;;;;;;5039378;28;20044;-75
2021/08/12 05:43:47;;;;;;;3.50;0.90;;;;;;;;;;5027310;28;20067;-74
2021/08/12 05:46:32;;;;;;;4.20;1.08;;;;;;;;;;5041701;28;20102;-76
2021/08/12 05:49:16;;;;;;;1.88;0.90;;;;;;;;;;5041199;28;20036;-75
2021/08/12 05:52:00;;;;;;;2.70;0.90;;;;;;;;;;5041313;28;20044;-75
2021/08/12 05:54:45;;;;;;;3.05;1.05;;;;;;;;;;5042862;28;20124;-75
2021/08/12 05:57:29;;;;;;;3.47;1.00;;;;;;;;;;5041378;28;20044;-75
2021/08/12 06:00:14;;;;;;;4.93;1.13;;;;;;;;;;5041484;28;20063;-74
2021/08/12 06:03:09;;;;;;;4.90;1.38;;;;;;;;;;5036091;28;20168;-75
2021/08/12 06:05:57;;;;;;;2.70;0.90;;;;;;;;;;5041123;28;20079;-75
2021/08/12 06:08:41;;;;;;;4.75;1.40;;;;;;;;;;5042809;28;20119;-74
2021/08/12 06:11:26;;;;;;;3.67;1.10;;;;;;;;;;5027028;28;20067;-75
2021/08/12 06:14:10;;;;;;;4.93;0.95;;;;;;;;;;5026591;28;20234;-75
2021/08/12 06:16:55;;;;;;;3.28;1.00;;;;;;;;;;5039975;28;20429;-74
2021/08/12 06:19:40;;;;;;;2.20;1.15;;;;;;;;;;5041783;28;20110;-74
2021/08/12 06:22:24;;;;;;;3.70;1.10;;;;;;;;;;5045721;28;20036;-74
2021/08/12 06:25:09;;;;;;;3.72;1.02;;;;;;;;;;5045204;28;20570;-75
2021/08/12 06:27:54;;;;;;;4.47;1.10;;;;;;;;;;5045242;28;20072;-74
2021/08/12 06:30:38;;;;;;;3.35;0.95;;;;;;;;;;5036460;28;20122;-75
2021/08/12 06:33:23;;;;;;;4.70;1.02;;;;;;;;;;5028606;28;20052;-75
2021/08/12 06:36:07;;;;;;;3.50;0.93;;;;;;;;;;5045025;28;20735;-75
2021/08/12 06:38:53;;;;;;;4.28;1.05;;;;;;;;;;5045612;28;20040;-76
2021/08/12 06:41:38;;;;;;;3.10;0.90;;;;;;;;;;5045025;28;20098;-75
2021/08/12 06:44:22;;;;;;;3.47;1.27;;;;;;;;;;5044673;28;20114;-74
2021/08/12 06:47:07;;;;;;;2.17;1.00;;;;;;;;;;5031092;28;20735;-74
2021/08/12 06:49:51;;;;;;;4.03;1.00;;;;;;;;;;5044886;28;20086;-74
2021/08/12 06:52:36;;;;;;;4.70;0.90;;;;;;;;;;5044741;28;20075;-73
2021/08/12 06:55:21;;;;;;;2.55;1.02;;;;;;;;;;5044529;28;20123;-74
2021/08/12 06:58:05;;;;;;;6.25;1.00;;;;;;;;;;5030663;28;20151;-75
2021/08/12 07:00:50;;;;;;;3.08;0.90;;;;;;;;;;5044964;28;20040;-75
2021/08/12 07:03:34;;;;;;;7.05;1.15;;;;;;;;;;5045869;28;20044;-74
2021/08/12 07:06:19;;;;;;;2.95;1.00;;;;;;;;;;5044479;28;20040;-74
2021/08/12 07:09:04;;;;;;;3.63;0.85;;;;;;;;;;5045656;28;20047;-74
2021/08/12 07:11:52;;;;;;;3.15;1.00;;;;;;;;;;5030447;28;20060;-74
2021/08/12 07:14:37;;;;;;;4.75;1.45;;;;;;;;;;5044202;28;20040;-74
2021/08/12 07:17:21;;;;;;;3.30;1.00;;;;;;;;;;5044229;28;20083;-73
2021/08/12 07:20:06;;;;;;;2.95;0.93;;;;;;;;;;5044188;28;20078;-74
2021/08/12 07:22:51;;;;;;;5.07;1.27;;;;;;;;;;5045432;28;20079;-74
2021/08/12 07:25:35;;;;;;;3.85;0.82;;;;;;;;;;5044126;28;20620;-74
2021/08/12 07:28:20;;;;;;;4.07;1.10;;;;;;;;;;5043429;28;20079;-74
2021/08/12 07:31:04;;;;;;;3.20;1.02;;;;;;;;;;5045270;28;20120;-74
2021/08/12 07:33:49;;;;;;;4.20;1.25;;;;;;;;;;5043177;28;20555;-75
2021/08/12 07:36:35;;;;;;;3.65;1.05;;;;;;;;;;5045018;28;20434;-74
2021/08/12 07:39:20;;;;;;;4.50;1.15;;;;;;;;;;5043814;28;20554;-73
2021/08/12 07:42:04;;;;;;;3.42;1.30;;;;;;;;;;5043750;28;20128;-75
2021/08/12 07:44:49;;;;;;;3.83;1.23;;;;;;;;;;5043509;28;20039;-75
2021/08/12 07:47:33;;;;;;;3.30;1.02;;;;;;;;;;5044624;28;20183;-74
2021/08/12 07:50:18;;;;;;;3.08;1.10;;;;;;;;;;5043475;28;20059;-74
2021/08/12 07:53:03;;;;;;;2.78;1.40;;;;;;;;;;5044926;28;20056;-75
2021/08/12 07:55:47;;;;;;;4.20;1.10;;;;;;;;;;5043582;28;20041;-74
2021/08/12 07:58:32;;;;;;;5.57;1.17;;;;;;;;;;5043311;28;20044;-74
2021/08/12 08:01:17;;;;;;;1.80;0.80;;;;;;;;;;5035463;28;20114;-74
2021/08/12 08:04:04;;;;;;;4.78;1.13;;;;;;;;;;5029562;28;20040;-74
2021/08/12 08:06:48;;;;;;;3.30;1.10;;;;;;;;;;5043718;28;20099;-74
2021/08/12 08:09:33;;;;;;;4.40;1.10;;;;;;;;;;5042122;28;20716;-73
2021/08/12 08:12:18;;;;;;;5.20;1.42;;;;;;;;;;5044273;28;20048;-75
2021/08/12 08:15:02;;;;;;;4.85;1.00;;;;;;;;;;5043264;28;20044;-74
2021/08/12 08:17:47;;;;;;;6.93;1.08;;;;;;;;;;5028532;28;20039;-75
2021/08/12 08:20:31;;;;;;;5.07;1.10;;;;;;;;;;5043076;28;20072;-74
2021/08/12 08:23:16;;;;;;;3.08;1.13;;;;;;;;;;5044183;28;20127;-75
2021/08/12 08:26:00;;;;;;;4.15;1.23;;;;;;;;;;5041331;28;20111;-74
2021/08/12 08:28:45;;;;;;;3.88;1.27;;;;;;;;;;5012566;28;20509;-74
2021/08/12 08:31:30;;;;;;;2.97;1.40;;;;;;;;;;5043596;28;20132;-74
2021/08/12 08:34:15;;;;;;;3.58;1.08;;;;;;;;;;5044015;28;20616;-75
2021/08/12 08:36:59;;;;;;;4.10;0.98;;;;;;;;;;5043432;28;20106;-75
2021/08/12 08:39:44;;;;;;;4.07;1.20;;;;;;;;;;5042805;28;20040;-74
2021/08/12 08:42:28;;;;;;;3.60;1.20;;;;;;;;;;5043163;28;20124;-75
2021/08/12 08:45:15;;;;;;;3.60;1.30;;;;;;;;;;5042253;28;20082;-75
2021/08/12 08:48:01;;;;;;;4.35;1.25;;;;;;;;;;5042622;28;20122;-75
2021/08/12 08:50:46;;;;;;;2.30;1.10;;;;;;;;;;5041956;28;20401;-74
2021/08/12 08:53:31;;;;;;;3.67;1.20;;;;;;;;;;5027172;28;20095;-75
2021/08/12 08:56:18;;;;;;;3.20;1.00;;;;;;;;;;5042068;28;20063;-76
2021/08/12 08:59:03;;;;;;;4.20;1.23;;;;;;;;;;5028343;28;20035;-75
2021/08/12 09:01:48;;;;;;;5.57;1.98;;;;;;;;;;5042212;28;20035;-75
2021/08/12 09:04:33;;;;;;;3.00;1.30;;;;;;;;;;5043327;28;20469;-75
2021/08/12 09:07:18;;;;;;;5.90;1.25;;;;;;;;;;5043724;28;20044;-77
2021/08/12 09:10:03;;;;;;;5.40;1.38;;;;;;;;;;5042095;28;20040;-75
2021/08/12 09:12:48;;;;;;;4.13;1.30;;;;;;;;;;5036798;28;20849;-76
2021/08/12 09:15:42;;;;;;;2.25;1.20;;;;;;;;;;5042500;28;20051;-75
2021/08/12 09:18:27;;;;;;;3.80;1.42;;;;;;;;;;5042435;28;20523;-78
2021/08/12 09:21:19;;;;;;;4.35;1.33;;;;;;;;;;5045460;28;20040;-73
2021/08/12 09:24:04;;;;;;;6.55;1.27;;;;;;;;;;5027626;28;20063;-74
2021/08/12 09:26:48;;;;;;;5.05;1.67;;;;;;;;;;5028681;28;20426;-75
2021/08/12 09:29:33;;;;;;;4.18;1.42;;;;;;;;;;5041730;28;20067;-75
2021/08/12 09:32:19;;;;;;;5.18;1.27;;;;;;;;;;5039834;28;20037;-74
2021/08/12 09:35:05;;;;;;;6.28;1.65;;;;;;;;;;5009914;28;20167;-75
2021/08/12 09:37:49;;;;;;;3.67;1.23;;;;;;;;;;5036323;28;20072;-75
2021/08/12 09:40:34;;;;;;;5.60;1.55;;;;;;;;;;5042168;28;20481;-75
2021/08/12 09:43:20;;;;;;;3.28;1.27;;;;;;;;;;5031482;28;20035;-76
2021/08/12 09:46:06;;;;;;;3.67;1.20;;;;;;;;;;5043513;28;20048;-74
2021/08/12 09:48:57;;;;;;;2.97;1.30;;;;;;;;;;5041829;28;20116;-75
2021/08/12 09:51:42;;;;;;;4.60;1.38;;;;;;;;;;5028094;28;20128;-75
2021/08/12 09:54:30;;;;;;;3.90;1.27;;;;;;;;;;5023275;28;20048;-75
2021/08/12 09:57:15;;;;;;;6.75;1.77;;;;;;;;;;5025840;28;20220;-75
2021/08/12 10:00:00;;;;;;;3.80;1.23;;;;;;;;;;5037680;28;20596;-76
2021/08/12 10:02:45;;;;;;;6.28;1.60;;;;;;;;;;5027897;28;20080;-74
2021/08/12 10:05:30;;;;;;;5.20;1.52;;;;;;;;;;5025845;28;20119;-75
2021/08/12 10:08:25;;;;;;;5.13;1.50;;;;;;;;;;5027434;28;20105;-75
2021/08/12 10:11:20;;;;;;;3.40;1.40;;;;;;;;;;5025587;28;20044;-76
2021/08/12 10:14:05;;;;;;;3.92;1.40;;;;;;;;;;5026260;28;20095;-76
2021/08/12 10:16:50;;;;;;;2.40;1.05;;;;;;;;;;5031692;28;20083;-75
2021/08/12 10:19:35;;;;;;;5.47;1.58;;;;;;;;;;5045236;28;20106;-75
2021/08/12 10:22:19;;;;;;;6.50;1.23;;;;;;;;;;5045429;28;20520;-76
2021/08/12 10:25:05;;;;;;;4.30;1.40;;;;;;;;;;5045725;28;20143;-76
2021/08/12 10:27:50;;;;;;;3.80;1.50;;;;;;;;;;5044898;28;20047;-76
2021/08/12 10:30:35;;;;;;;4.55;1.25;;;;;;;;;;5031586;28;20646;-75
2021/08/12 10:33:20;;;;;;;4.13;1.27;;;;;;;;;;5044416;28;20175;-76
2021/08/12 10:36:05;;;;;;;4.18;1.63;;;;;;;;;;5026479;28;20088;-77
2021/08/12 10:38:49;;;;;;;4.15;1.42;;;;;;;;;;5011371;28;20517;-76
2021/08/12 10:41:37;;;;;;;3.00;1.30;;;;;;;;;;5043329;28;20055;-75
2021/08/12 10:44:22;;;;;;;6.18;1.50;;;;;;;;;;5045065;28;20508;-74
2021/08/12 10:47:07;;;;;;;5.70;1.40;;;;;;;;;;5031110;28;20040;-74
2021/08/12 10:49:51;;;;;;;3.55;1.50;;;;;;;;;;5030731;28;20052;-75
2021/08/12 10:52:37;;;;;;;3.05;1.50;;;;;;;;;;5044561;28;20502;-76
2021/08/12 10:55:22;;;;;;;3.35;1.45;;;;;;;;;;5025049;28;20052;-74
2021/08/12 10:58:19;;;;;;;3.58;1.40;;;;;;;;;;5026321;28;20043;-76
2021/08/12 11:01:07;;;;;;;4.53;1.65;;;;;;;;;;5033585;28;20536;-75
2021/08/12 11:03:53;;;;;;;3.75;1.30;;;;;;;;;;5044989;28;20044;-76
2021/08/12 11:06:42;;;;;;;5.13;1.40;;;;;;;;;;5044281;28;20094;-76
2021/08/12 11:09:27;;;;;;;3.78;1.60;;;;;;;;;;5047595;28;20039;-73
2021/08/12 11:12:11;;;;;;;4.07;1.50;;;;;;;;;;5064593;28;20602;-76
2021/08/12 11:14:56;;;;;;;4.38;1.65;;;;;;;;;;5066018;28;20058;-74
2021/08/12 11:17:54;;;;;;;5.40;1.55;;;;;;;;;;5064622;28;20032;-76
2021/08/12 11:20:40;;;;;;;3.53;1.40;;;;;;;;;;5028486;28;20094;-75
2021/08/12 11:23:25;;;;;;;5.90;1.60;;;;;;;;;;5044210;28;20102;-75
2021/08/12 11:26:10;;;;;;;4.47;1.67;;;;;;;;;;5045469;28;20047;-76
2021/08/12 11:28:55;;;;;;;5.30;1.50;;;;;;;;;;5045107;28;20100;-76
2021/08/12 11:31:40;;;;;;;4.03;1.77;;;;;;;;;;5045151;28;20068;-76
2021/08/12 11:34:29;;;;;;;2.95;1.42;;;;;;;;;;5045165;28;20091;-76
2021/08/12 11:37:17;;;;;;;4.03;1.48;;;;;;;;;;5044869;28;20496;-76
2021/08/12 11:40:06;;;;;;;5.25;1.40;;;;;;;;;;5045158;28;20047;-76
2021/08/12 11:42:51;;;;;;;5.35;1.63;;;;;;;;;;5045140;28;20052;-75
2021/08/12 11:45:36;;;;;;;4.80;1.63;;;;;;;;;;5043878;28;20043;-76
2021/08/12 11:48:20;;;;;;;3.40;1.42;;;;;;;;;;5043652;28;20035;-76
2021/08/12 11:51:04;;;;;;;3.70;1.50;;;;;;;;;;5043966;28;20048;-76
2021/08/12 11:53:50;;;;;;;4.53;1.67;;;;;;;;;;5044602;28;20051;-76
2021/08/12 11:56:37;;;;;;;5.20;1.58;;;;;;;;;;5043324;28;20047;-76
2021/08/12 11:59:25;;;;;;;5.15;1.60;;;;;;;;;;5043436;28;20464;-74
2021/08/12 12:02:10;;;;;;;3.75;1.40;;;;;;;;;;5028477;28;20107;-76
2021/08/12 12:04:54;;;;;;;8.23;1.58;;;;;;;;;;5043230;28;20583;-77
2021/08/12 12:07:42;;;;;;;6.68;1.80;;;;;;;;;;5031143;28;20047;-76
2021/08/12 12:10:31;;;;;;;4.28;1.80;;;;;;;;;;5044517;28;20548;-75
2021/08/12 12:13:16;;;;;;;4.40;1.80;;;;;;;;;;5015299;28;20048;-75
2021/08/12 12:16:01;;;;;;;7.10;2.00;;;;;;;;;;5042951;28;20690;-75
2021/08/12 12:18:45;;;;;;;3.80;1.70;;;;;;;;;;5043103;28;20048;-76
2021/08/12 12:21:31;;;;;;;6.43;1.70;;;;;;;;;;5031233;28;20297;-75
2021/08/12 12:24:15;;;;;;;3.75;1.60;;;;;;;;;;5023331;28;20058;-75
2021/08/12 12:27:00;;;;;;;5.07;1.75;;;;;;;;;;5037810;28;20032;-75
2021/08/12 12:29:45;;;;;;;6.90;2.10;;;;;;;;;;5044326;28;20091;-75
2021/08/12 12:32:29;;;;;;;7.25;1.67;;;;;;;;;;5042415;28;20530;-75
2021/08/12 12:35:14;;;;;;;4.32;1.60;;;;;;;;;;5044048;28;20040;-75
2021/08/12 12:37:59;;;;;;;4.88;1.90;;;;;;;;;;5042551;28;20048;-76
2021/08/12 12:40:43;;;;;;;5.78;1.75;;;;;;;;;;5034206;28;20043;-76
2021/08/12 12:43:29;;;;;;;7.35;1.70;;;;;;;;;;5042400;28;20075;-76
2021/08/12 12:46:13;;;;;;;6.53;1.88;;;;;;;;;;5027243;28;20056;-75
2021/08/12 12:48:58;;;;;;;6.22;1.92;;;;;;;;;;5051370;28;20053;-76
2021/08/12 12:51:42;;;;;;;7.57;2.30;;;;;;;;;;5050507;28;20057;-76
2021/08/12 12:54:31;;;;;;;7.05;2.15;;;;;;;;;;5023994;28;20107;-77
2021/08/12 12:57:29;;;;;;;6.25;1.75;;;;;;;;;;5039019;28;20125;-78
2021/08/12 13:00:23;;;;;;;6.60;1.90;;;;;;;;;;5048168;28;20597;-76
2021/08/12 13:03:08;;;;;;;7.93;1.85;;;;;;;;;;5023071;28;20898;-75
2021/08/12 13:05:58;;;;;;;4.80;1.98;;;;;;;;;;5042775;28;20059;-76
2021/08/12 13:08:48;;;;;;;6.10;1.83;;;;;;;;;;5040457;28;20656;-77
2021/08/12 13:11:33;;;;;;;4.82;1.77;;;;;;;;;;5028848;28;20058;-76
2021/08/12 13:14:17;;;;;;;6.38;1.88;;;;;;;;;;5037347;28;20043;-76
2021/08/12 13:17:02;;;;;;;8.45;2.22;;;;;;;;;;5042485;28;20405;-76
2021/08/12 13:19:51;;;;;;;5.35;1.95;;;;;;;;;;5041428;28;20043;-76
2021/08/12 13:22:43;;;;;;;6.80;1.83;;;;;;;;;;5039415;28;20036;-76
2021/08/12 13:25:27;;;;;;;6.32;1.80;;;;;;;;;;5031344;28;20049;-76
2021/08/12 13:28:12;;;;;;;5.88;1.55;;;;;;;;;;5033455;28;20439;-74
2021/08/12 13:30:56;;;;;;;5.10;2.03;;;;;;;;;;5028868;28;20052;-74
2021/08/12 13:33:40;;;;;;;4.38;1.52;;;;;;;;;;5046637;28;20417;-73
2021/08/12 13:36:25;;;;;;;6.55;1.70;;;;;;;;;;5042240;28;20056;-74
2021/08/12 13:39:09;;;;;;;4.03;1.65;;;;;;;;;;5046113;28;20048;-74
2021/08/12 13:41:59;;;;;;;5.68;1.52;;;;;;;;;;5038957;28;20064;-74
2021/08/12 13:44:43;;;;;;;4.40;1.40;;;;;;;;;;5045232;28;20560;-73
2021/08/12 13:47:28;;;;;;;4.20;1.70;;;;;;;;;;5045044;28;20115;-73
2021/08/12 13:50:13;;;;;;;6.63;1.60;;;;;;;;;;5046198;28;20051;-73
2021/08/12 13:52:58;;;;;;;3.13;1.30;;;;;;;;;;5047019;28;20417;-74
2021/08/12 13:55:42;;;;;;;3.40;1.50;;;;;;;;;;5044829;28;20095;-73
2021/08/12 13:58:27;;;;;;;4.45;1.40;;;;;;;;;;5047291;28;20136;-73
2021/08/12 14:01:12;;;;;;;5.40;1.58;;;;;;;;;;5029916;28;20522;-73
2021/08/12 14:03:56;;;;;;;3.78;1.58;;;;;;;;;;5047005;28;20129;-73
2021/08/12 14:06:41;;;;;;;4.50;1.60;;;;;;;;;;5046019;28;20071;-74
2021/08/12 14:09:25;;;;;;;5.10;1.42;;;;;;;;;;5045398;28;20669;-74
2021/08/12 14:12:10;;;;;;;3.15;1.23;;;;;;;;;;5043187;28;20048;-73
2021/08/12 14:14:55;;;;;;;4.30;1.42;;;;;;;;;;5044928;28;20080;-74
2021/08/12 14:17:41;;;;;;;5.35;1.60;;;;;;;;;;5033724;28;20043;-74
2021/08/12 14:20:25;;;;;;;4.07;1.50;;;;;;;;;;5035102;28;20107;-74
2021/08/12 14:23:10;;;;;;;5.43;1.73;;;;;;;;;;5044827;28;20094;-74
2021/08/12 14:25:55;;;;;;;4.50;1.50;;;;;;;;;;5026561;28;20048;-74
2021/08/12 14:28:39;;;;;;;4.25;1.40;;;;;;;;;;5045114;28;20035;-74
2021/08/12 14:31:29;;;;;;;4.45;1.55;;;;;;;;;;5040558;28;20051;-85
2021/08/12 14:34:14;;;;;;;4.95;1.42;;;;;;;;;;5026370;28;20529;-81
2021/08/12 14:37:00;;;;;;;5.28;1.70;;;;;;;;;;5041007;28;20760;-80
2021/08/12 14:39:49;;;;;;;5.20;1.95;;;;;;;;;;5029443;28;20052;-81
2021/08/12 14:42:33;;;;;;;2.65;1.38;;;;;;;;;;5031851;28;20052;-81
2021/08/12 14:45:18;;;;;;;5.82;1.70;;;;;;;;;;5031565;28;20047;-81
2021/08/12 14:48:03;;;;;;;3.83;1.50;;;;;;;;;;5045939;28;20039;-82
2021/08/12 14:50:48;;;;;;;4.10;1.60;;;;;;;;;;5038438;28;20087;-82
2021/08/12 14:53:33;;;;;;;6.18;1.50;;;;;;;;;;5029019;28;20110;-81
2021/08/12 14:56:18;;;;;;;5.85;1.48;;;;;;;;;;5041430;28;20156;-80
2021/08/12 14:59:02;;;;;;;3.33;1.60;;;;;;;;;;5063168;28;20044;-80
2021/08/12 15:01:47;;;;;;;4.25;1.50;;;;;;;;;;5046625;28;20409;-80
2021/08/12 15:04:32;;;;;;;4.82;1.70;;;;;;;;;;5045183;28;20410;-80
2021/08/12 15:07:18;;;;;;;3.08;1.58;;;;;;;;;;5032190;28;20032;-79
2021/08/12 15:10:03;;;;;;;4.97;1.80;;;;;;;;;;5030958;28;20094;-78
2021/08/12 15:12:48;;;;;;;5.28;1.40;;;;;;;;;;5031257;28;20122;-80
2021/08/12 15:15:33;;;;;;;5.30;1.58;;;;;;;;;;5027101;28;20043;-81
2021/08/12 15:18:17;;;;;;;7.03;1.80;;;;;;;;;;5028748;28;20056;-80
2021/08/12 15:21:04;;;;;;;3.45;1.52;;;;;;;;;;5025162;28;20071;-78
2021/08/12 15:23:49;;;;;;;4.35;1.45;;;;;;;;;;5032532;28;20111;-79
2021/08/12 15:26:34;;;;;;;4.78;1.52;;;;;;;;;;5043693;28;20402;-78
2021/08/12 15:29:18;;;;;;;4.32;1.58;;;;;;;;;;5031368;28;20044;-78
2021/08/12 15:32:03;;;;;;;3.97;1.50;;;;;;;;;;5040160;28;20138;-80
2021/08/12 15:34:48;;;;;;;3.78;1.35;;;;;;;;;;5028482;28;20085;-81
2021/08/12 15:37:33;;;;;;;4.22;1.33;;;;;;;;;;5034778;28;20048;-81
2021/08/12 15:40:17;;;;;;;7.82;1.65;;;;;;;;;;5038828;28;20067;-78
2021/08/12 15:43:02;;;;;;;4.70;1.50;;;;;;;;;;5030918;28;20040;-77
2021/08/12 15:45:47;;;;;;;5.45;1.30;;;;;;;;;;5031125;28;20040;-78
2021/08/12 15:48:31;;;;;;;3.97;1.38;;;;;;;;;;5030970;28;20119;-79
2021/08/12 15:51:16;;;;;;;4.13;1.63;;;;;;;;;;5045706;28;20071;-78
2021/08/12 15:54:01;;;;;;;5.82;1.92;;;;;;;;;;5044811;28;20052;-78
2021/08/12 15:56:45;;;;;;;3.70;1.30;;;;;;;;;;5044447;28;20455;-78
2021/08/12 15:59:30;;;;;;;6.45;1.88;;;;;;;;;;5044690;28;20043;-78
2021/08/12 16:02:14;;;;;;;3.92;1.48;;;;;;;;;;5045680;28;20430;-76
2021/08/12 16:04:59;;;;;;;7.82;1.67;;;;;;;;;;5024610;28;20071;-75
2021/08/12 16:07:44;;;;;;;4.65;1.70;;;;;;;;;;5028606;28;20043;-77
2021/08/12 16:10:28;;;;;;;3.63;1.40;;;;;;;;;;5044629;28;20090;-77
2021/08/12 16:13:13;;;;;;;5.82;1.67;;;;;;;;;;5029982;28;20048;-78
2021/08/12 16:15:58;;;;;;;4.18;1.60;;;;;;;;;;5044582;28;20147;-78
2021/08/12 16:18:42;;;;;;;4.85;1.38;;;;;;;;;;5043926;28;20082;-78
2021/08/12 16:21:27;;;;;;;3.30;1.38;;;;;;;;;;5045511;28;20045;-78
2021/08/12 16:24:11;;;;;;;4.95;1.40;;;;;;;;;;5044128;28;20120;-77
2021/08/12 16:26:56;;;;;;;3.95;1.48;;;;;;;;;;5044727;28;20071;-77
2021/08/12 16:29:40;;;;;;;3.65;1.33;;;;;;;;;;5030144;28;20044;-77
2021/08/12 16:32:25;;;;;;;3.88;1.33;;;;;;;;;;5019167;28;20521;-77